createdAt,value
2017-07-09T00:02:22.977Z,86.20
2017-07-09T00:04:51.288Z,86.80
2017-07-09T00:07:19.651Z,87.10
2017-07-09T00:09:48.000Z,87.40
2017-07-09T00:12:16.305Z,87.60
2017-07-09T00:14:44.644Z,87.70
2017-07-09T00:17:13.008Z,87.40
2017-07-09T00:19:41.324Z,88.10
2017-07-09T00:22:09.644Z,87.50
2017-07-09T00:24:37.995Z,87.70
2017-07-09T00:27:06.321Z,87.70
2017-07-09T00:29:34.632Z,88.30
2017-07-09T00:32:02.977Z,87.30
2017-07-09T00:34:31.297Z,88.50
2017-07-09T00:36:59.635Z,87.50
2017-07-09T00:39:27.993Z,86.90
2017-07-09T00:41:56.312Z,87.90
2017-07-09T00:44:24.620Z,88.20
2017-07-09T00:46:52.972Z,87.60
2017-07-09T00:49:21.285Z,87.90
2017-07-09T00:51:49.637Z,88.50
2017-07-09T00:54:17.962Z,87.90
2017-07-09T00:56:46.277Z,87.90
2017-07-09T00:59:14.629Z,87.70
2017-07-09T01:01:42.940Z,88.60
2017-07-09T01:04:11.290Z,87.60
2017-07-09T01:06:39.600Z,87.00
2017-07-09T01:09:07.941Z,87.20
2017-07-09T01:11:36.288Z,87.60
2017-07-09T01:14:04.605Z,88.30
2017-07-09T01:16:33.310Z,88.80
2017-07-09T01:19:01.623Z,88.00
2017-07-09T01:21:29.945Z,87.80
2017-07-09T01:23:58.293Z,88.40
2017-07-09T01:26:26.614Z,87.70
2017-07-09T01:28:54.970Z,88.00
2017-07-09T01:31:23.280Z,88.50
2017-07-09T01:33:51.598Z,88.50
2017-07-09T01:36:19.941Z,88.50
2017-07-09T01:38:48.262Z,87.80
2017-07-09T01:41:16.615Z,87.50
2017-07-09T01:43:44.925Z,88.00
2017-07-09T01:46:13.243Z,87.90
2017-07-09T01:48:41.584Z,87.50
2017-07-09T01:51:09.906Z,88.80
2017-07-09T01:53:38.203Z,87.90
2017-07-09T01:56:06.463Z,88.70
2017-07-09T01:58:34.763Z,87.60
2017-07-09T02:01:02.280Z,87.50
2017-07-09T02:03:30.587Z,88.30
2017-07-09T02:05:58.857Z,88.80
2017-07-09T02:08:27.125Z,89.30
2017-07-09T02:10:55.421Z,88.30
2017-07-09T02:13:23.685Z,88.80
2017-07-09T02:15:51.986Z,86.80
2017-07-09T02:18:20.262Z,86.90
2017-07-09T02:20:48.527Z,87.00
2017-07-09T02:23:16.814Z,87.50
2017-07-09T02:25:45.078Z,86.40
2017-07-09T02:28:13.379Z,86.40
2017-07-09T02:30:41.653Z,87.20
2017-07-09T02:33:09.968Z,86.40
2017-07-09T02:35:38.232Z,87.10
2017-07-09T02:38:06.501Z,87.00
2017-07-09T02:40:34.795Z,86.50
2017-07-09T02:43:03.060Z,85.30
2017-07-09T02:45:31.364Z,85.20
2017-07-09T02:47:59.629Z,85.30
2017-07-09T02:50:27.893Z,84.60
2017-07-09T02:52:56.183Z,85.00
2017-07-09T02:55:24.455Z,85.40
2017-07-09T02:57:52.774Z,86.00
2017-07-09T03:00:21.045Z,86.60
2017-07-09T03:02:49.307Z,86.40
2017-07-09T03:05:17.604Z,86.50
2017-07-09T03:07:45.864Z,86.10
2017-07-09T03:10:13.399Z,86.10
2017-07-09T03:12:41.671Z,86.30
2017-07-09T03:15:09.940Z,86.00
2017-07-09T03:17:38.234Z,85.40
2017-07-09T03:20:06.496Z,86.40
2017-07-09T03:22:34.796Z,84.30
2017-07-09T03:25:03.055Z,84.90
2017-07-09T03:27:31.318Z,85.80
2017-07-09T03:29:59.626Z,86.70
2017-07-09T03:32:27.900Z,85.80
2017-07-09T03:34:56.177Z,84.10
2017-07-09T03:37:24.464Z,84.00
2017-07-09T03:39:52.772Z,83.80
2017-07-09T03:42:21.078Z,84.90
2017-07-09T03:44:49.363Z,84.70
2017-07-09T03:47:17.665Z,84.70
2017-07-09T03:49:45.934Z,84.60
2017-07-09T03:52:14.232Z,84.20
2017-07-09T03:54:42.542Z,85.00
2017-07-09T03:57:10.839Z,85.00
2017-07-09T03:59:39.114Z,83.80
2017-07-09T04:02:07.410Z,85.20
2017-07-09T04:04:35.677Z,85.30
2017-07-09T04:07:03.975Z,84.90
2017-07-09T04:09:32.322Z,84.30
2017-07-09T04:12:00.599Z,84.20
2017-07-09T04:14:28.876Z,85.30
2017-07-09T04:16:57.177Z,86.20
2017-07-09T04:19:25.486Z,84.60
2017-07-09T04:21:53.802Z,84.90
2017-07-09T04:24:22.067Z,84.60
2017-07-09T04:26:50.335Z,85.90
2017-07-09T04:29:18.655Z,86.20
2017-07-09T04:31:46.966Z,87.10
2017-07-09T04:34:15.262Z,86.40
2017-07-09T04:36:43.548Z,87.20
2017-07-09T04:39:11.849Z,86.80
2017-07-09T04:41:40.126Z,85.00
2017-07-09T04:44:08.448Z,85.20
2017-07-09T04:46:36.724Z,86.40
2017-07-09T04:49:04.993Z,83.90
2017-07-09T04:51:33.299Z,86.30
2017-07-09T04:54:01.570Z,85.60
2017-07-09T04:56:29.867Z,85.30
2017-07-09T04:58:58.161Z,85.50
2017-07-09T05:01:26.509Z,85.00
2017-07-09T05:03:54.776Z,85.40
2017-07-09T05:06:23.074Z,85.10
2017-07-09T05:08:51.382Z,84.80
2017-07-09T05:11:19.648Z,86.00
2017-07-09T05:13:47.924Z,84.90
2017-07-09T05:16:16.228Z,85.40
2017-07-09T05:18:44.499Z,85.80
2017-07-09T05:21:12.820Z,84.60
2017-07-09T05:23:41.083Z,85.40
2017-07-09T05:26:09.384Z,85.80
2017-07-09T05:28:37.694Z,84.10
2017-07-09T05:31:05.967Z,83.90
2017-07-09T05:33:34.272Z,84.70
2017-07-09T05:36:02.533Z,85.40
2017-07-09T05:38:30.843Z,83.90
2017-07-09T05:40:59.125Z,85.00
2017-07-09T05:43:27.392Z,84.50
2017-07-09T05:45:55.691Z,83.90
2017-07-09T05:48:23.961Z,84.60
2017-07-09T05:50:52.273Z,85.00
2017-07-09T05:53:20.551Z,84.10
2017-07-09T05:55:48.829Z,85.00
2017-07-09T05:58:17.127Z,85.20
2017-07-09T06:00:45.394Z,84.80
2017-07-09T06:03:13.709Z,81.80
2017-07-09T06:05:41.983Z,82.80
2017-07-09T06:08:10.258Z,84.70
2017-07-09T06:10:38.586Z,85.00
2017-07-09T06:13:06.854Z,84.50
2017-07-09T06:15:35.160Z,83.40
2017-07-09T06:18:03.423Z,82.60
2017-07-09T06:20:31.705Z,81.50
2017-07-09T06:23:00.005Z,82.30
2017-07-09T06:25:28.287Z,82.80
2017-07-09T06:27:56.589Z,83.10
2017-07-09T06:30:24.869Z,82.50
2017-07-09T06:32:53.173Z,82.40
2017-07-09T06:35:21.468Z,83.80
2017-07-09T06:37:49.729Z,83.80
2017-07-09T06:40:18.041Z,82.70
2017-07-09T06:42:46.308Z,82.80
2017-07-09T06:45:14.650Z,82.10
2017-07-09T06:47:42.916Z,82.60
2017-07-09T06:50:11.209Z,83.40
2017-07-09T06:52:39.525Z,83.20
2017-07-09T06:55:07.811Z,82.80
2017-07-09T06:57:36.136Z,81.90
2017-07-09T07:00:04.424Z,83.00
2017-07-09T07:02:32.732Z,83.20
2017-07-09T07:05:01.032Z,84.60
2017-07-09T07:07:29.323Z,83.10
2017-07-09T07:09:57.625Z,82.80
2017-07-09T07:12:25.896Z,83.40
2017-07-09T07:14:54.211Z,81.70
2017-07-09T07:17:22.480Z,82.50
2017-07-09T07:19:50.761Z,81.50
2017-07-09T07:22:19.062Z,82.30
2017-07-09T07:24:47.339Z,84.70
2017-07-09T07:27:15.638Z,82.20
2017-07-09T07:29:43.907Z,81.60
2017-07-09T07:32:12.219Z,81.20
2017-07-09T07:34:40.489Z,79.90
2017-07-09T07:37:08.753Z,81.00
2017-07-09T07:39:37.059Z,79.00
2017-07-09T07:42:05.335Z,80.20
2017-07-09T07:44:33.608Z,80.00
2017-07-09T07:47:01.908Z,80.00
2017-07-09T07:49:30.178Z,79.50
2017-07-09T07:51:58.473Z,78.50
2017-07-09T07:54:26.745Z,79.70
2017-07-09T07:56:55.054Z,80.40
2017-07-09T07:59:23.329Z,80.20
2017-07-09T08:01:51.608Z,77.10
2017-07-09T08:04:19.918Z,77.10
2017-07-09T08:06:48.191Z,76.50
2017-07-09T08:09:16.494Z,75.60
2017-07-09T08:11:44.785Z,77.70
2017-07-09T08:14:13.122Z,77.30
2017-07-09T08:16:41.506Z,78.00
2017-07-09T08:19:09.725Z,77.90
2017-07-09T08:21:38.028Z,76.80
2017-07-09T08:24:06.299Z,75.90
2017-07-09T08:26:34.600Z,74.40
2017-07-09T08:29:02.873Z,75.80
2017-07-09T08:31:31.150Z,78.30
2017-07-09T08:33:59.447Z,75.00
2017-07-09T08:36:27.719Z,76.80
2017-07-09T08:38:56.011Z,76.00
2017-07-09T08:41:24.298Z,75.90
2017-07-09T08:43:52.642Z,72.50
2017-07-09T08:46:20.917Z,73.20
2017-07-09T08:48:49.189Z,71.60
2017-07-09T08:51:18.221Z,70.50
2017-07-09T08:53:46.497Z,69.60
2017-07-09T08:56:14.822Z,70.60
2017-07-09T08:58:43.096Z,71.90
2017-07-09T09:01:11.371Z,72.70
2017-07-09T09:03:39.672Z,73.50
2017-07-09T09:06:07.945Z,71.90
2017-07-09T09:08:36.252Z,69.40
2017-07-09T09:11:03.748Z,69.30
2017-07-09T09:13:32.025Z,67.70
2017-07-09T09:16:00.321Z,70.40
2017-07-09T09:18:28.585Z,69.50
2017-07-09T09:20:56.857Z,69.80
2017-07-09T09:23:25.159Z,69.30
2017-07-09T09:25:53.449Z,68.30
2017-07-09T09:28:21.720Z,69.00
2017-07-09T09:30:50.043Z,67.50
2017-07-09T09:33:18.314Z,68.20
2017-07-09T09:35:46.588Z,67.20
2017-07-09T09:38:14.888Z,67.70
2017-07-09T09:40:43.156Z,63.30
2017-07-09T09:43:11.421Z,63.20
2017-07-09T09:45:39.707Z,64.20
2017-07-09T09:48:07.973Z,64.90
2017-07-09T09:50:36.261Z,67.10
2017-07-09T09:53:04.536Z,67.20
2017-07-09T09:55:32.825Z,66.00
2017-07-09T09:58:01.097Z,62.10
2017-07-09T10:00:29.410Z,62.70
2017-07-09T10:02:57.676Z,63.50
2017-07-09T10:05:25.957Z,64.20
2017-07-09T10:07:54.263Z,62.70
2017-07-09T10:10:22.524Z,64.30
2017-07-09T10:12:50.795Z,62.70
2017-07-09T10:15:19.101Z,59.90
2017-07-09T10:17:47.412Z,59.80
2017-07-09T10:20:15.710Z,59.80
2017-07-09T10:22:43.976Z,59.80
2017-07-09T10:25:12.293Z,59.20
2017-07-09T10:27:40.568Z,59.90
2017-07-09T10:30:08.840Z,59.50
2017-07-09T10:32:37.145Z,61.40
2017-07-09T10:35:05.412Z,59.10
2017-07-09T10:37:33.688Z,62.80
2017-07-09T10:40:01.986Z,63.70
2017-07-09T10:42:30.253Z,59.90
2017-07-09T10:44:58.544Z,60.80
2017-07-09T10:47:26.803Z,60.10
2017-07-09T10:49:55.095Z,60.10
2017-07-09T10:52:23.352Z,58.20
2017-07-09T10:54:51.606Z,58.70
2017-07-09T10:57:19.930Z,59.50
2017-07-09T10:59:47.420Z,59.40
2017-07-09T11:02:15.728Z,57.40
2017-07-09T11:04:43.995Z,56.90
2017-07-09T11:07:12.269Z,57.60
2017-07-09T11:09:40.573Z,59.00
2017-07-09T11:12:08.853Z,56.50
2017-07-09T11:14:37.145Z,59.10
2017-07-09T11:17:05.414Z,56.80
2017-07-09T11:19:32.935Z,56.80
2017-07-09T11:22:01.199Z,57.40
2017-07-09T11:24:29.500Z,58.20
2017-07-09T11:26:57.763Z,55.60
2017-07-09T11:29:26.034Z,56.50
2017-07-09T11:31:54.322Z,55.80
2017-07-09T11:34:22.585Z,55.20
2017-07-09T11:36:50.873Z,55.20
2017-07-09T11:39:19.142Z,56.50
2017-07-09T11:41:47.425Z,54.30
2017-07-09T11:44:15.696Z,55.00
2017-07-09T11:46:43.987Z,55.60
2017-07-09T11:49:12.280Z,55.00
2017-07-09T11:51:40.568Z,53.50
2017-07-09T11:54:08.867Z,54.70
2017-07-09T11:56:37.129Z,54.30
2017-07-09T11:59:05.418Z,55.60
2017-07-09T12:01:33.714Z,53.90
2017-07-09T12:04:02.010Z,54.50
2017-07-09T12:06:30.276Z,53.90
2017-07-09T12:08:57.776Z,54.00
2017-07-09T12:11:26.075Z,55.50
2017-07-09T12:13:54.335Z,51.20
2017-07-09T12:16:22.601Z,51.90
2017-07-09T12:18:50.883Z,51.90
2017-07-09T12:21:19.148Z,50.30
2017-07-09T12:23:47.441Z,51.10
2017-07-09T12:26:15.704Z,50.80
2017-07-09T12:28:44.011Z,50.50
2017-07-09T12:31:12.275Z,53.80
2017-07-09T12:33:40.564Z,51.70
2017-07-09T12:36:08.867Z,51.00
2017-07-09T12:38:37.121Z,51.40
2017-07-09T12:41:05.404Z,51.40
2017-07-09T12:43:33.680Z,50.30
2017-07-09T12:46:01.978Z,49.70
2017-07-09T12:48:30.262Z,51.20
2017-07-09T12:50:58.557Z,51.50
2017-07-09T12:53:26.860Z,52.20
2017-07-09T12:55:55.128Z,50.20
2017-07-09T12:58:23.397Z,50.90
2017-07-09T13:00:51.709Z,50.10
2017-07-09T13:03:19.982Z,52.50
2017-07-09T13:05:48.264Z,52.10
2017-07-09T13:08:16.548Z,53.40
2017-07-09T13:10:44.839Z,52.30
2017-07-09T13:13:13.113Z,51.50
2017-07-09T13:15:41.415Z,52.80
2017-07-09T13:18:09.679Z,51.80
2017-07-09T13:20:37.983Z,47.30
2017-07-09T13:23:06.249Z,46.80
2017-07-09T13:25:34.513Z,48.60
2017-07-09T13:28:02.798Z,47.10
2017-07-09T13:30:30.296Z,47.10
2017-07-09T13:32:58.588Z,48.70
2017-07-09T13:35:26.853Z,48.80
2017-07-09T13:37:55.141Z,47.70
2017-07-09T13:40:23.413Z,47.60
2017-07-09T13:42:51.717Z,48.70
2017-07-09T13:45:19.983Z,47.70
2017-07-09T13:47:48.261Z,46.60
2017-07-09T13:50:16.551Z,47.40
2017-07-09T13:52:44.817Z,45.70
2017-07-09T13:55:13.114Z,46.50
2017-07-09T13:57:41.377Z,47.40
2017-07-09T14:00:09.638Z,45.80
2017-07-09T14:02:37.936Z,46.00
2017-07-09T14:05:06.209Z,46.10
2017-07-09T14:07:33.710Z,46.10
2017-07-09T14:10:02.004Z,44.20
2017-07-09T14:12:30.265Z,46.90
2017-07-09T14:14:58.579Z,46.40
2017-07-09T14:17:26.840Z,44.10
2017-07-09T14:19:55.120Z,46.20
2017-07-09T14:22:23.414Z,44.20
2017-07-09T14:24:51.700Z,45.90
2017-07-09T14:27:20.022Z,43.50
2017-07-09T14:29:48.279Z,43.70
2017-07-09T14:32:16.552Z,44.60
2017-07-09T14:34:44.850Z,42.40
2017-07-09T14:37:13.131Z,42.30
2017-07-09T14:39:41.421Z,42.70
2017-07-09T14:42:09.685Z,43.10
2017-07-09T14:44:37.985Z,43.60
2017-07-09T14:47:06.262Z,41.40
2017-07-09T14:49:33.768Z,41.30
2017-07-09T14:52:02.061Z,43.90
2017-07-09T14:54:30.317Z,43.30
2017-07-09T14:56:58.627Z,43.10
2017-07-09T14:59:26.895Z,41.30
2017-07-09T15:01:55.159Z,44.00
2017-07-09T15:04:23.458Z,44.70
2017-07-09T15:06:51.744Z,44.30
2017-07-09T15:09:20.011Z,44.00
2017-07-09T15:11:48.315Z,42.60
2017-07-09T15:14:16.573Z,41.90
2017-07-09T15:16:44.871Z,42.20
2017-07-09T15:19:13.147Z,39.20
2017-07-09T15:21:41.451Z,40.40
2017-07-09T15:24:09.765Z,41.00
2017-07-09T15:26:38.032Z,43.10
2017-07-09T15:29:06.302Z,40.00
2017-07-09T15:31:34.588Z,41.30
2017-07-09T15:34:02.885Z,41.50
2017-07-09T15:36:31.149Z,39.30
2017-07-09T15:38:59.444Z,41.70
2017-07-09T15:41:27.735Z,41.30
2017-07-09T15:43:56.012Z,40.00
2017-07-09T15:46:24.321Z,40.80
2017-07-09T15:48:52.581Z,39.60
2017-07-09T15:51:20.847Z,38.60
2017-07-09T15:53:49.133Z,39.90
2017-07-09T15:56:17.412Z,38.70
2017-07-09T15:58:45.705Z,39.70
2017-07-09T16:01:13.975Z,39.50
2017-07-09T16:03:42.264Z,39.30
2017-07-09T16:06:10.545Z,40.00
2017-07-09T16:08:38.831Z,37.40
2017-07-09T16:11:07.108Z,39.60
2017-07-09T16:13:35.408Z,41.50
2017-07-09T16:16:03.676Z,41.80
2017-07-09T16:18:31.962Z,42.10
2017-07-09T16:21:00.251Z,40.30
2017-07-09T16:23:28.525Z,40.50
2017-07-09T16:25:56.826Z,40.80
2017-07-09T16:28:25.135Z,42.10
2017-07-09T16:30:53.400Z,42.10
2017-07-09T16:33:21.665Z,41.60
2017-07-09T16:35:49.953Z,42.30
2017-07-09T16:38:18.218Z,44.50
2017-07-09T16:40:46.506Z,44.00
2017-07-09T16:43:14.764Z,43.40
2017-07-09T16:45:43.043Z,44.10
2017-07-09T16:48:11.306Z,43.30
2017-07-09T16:50:39.617Z,44.50
2017-07-09T16:53:07.908Z,46.00
2017-07-09T16:55:36.175Z,44.60
2017-07-09T16:58:04.466Z,45.20
2017-07-09T17:00:32.730Z,44.90
2017-07-09T17:03:01.055Z,44.30
2017-07-09T17:05:29.327Z,45.30
2017-07-09T17:07:57.597Z,43.20
2017-07-09T17:10:25.900Z,45.20
2017-07-09T17:12:54.175Z,44.50
2017-07-09T17:15:22.463Z,45.30
2017-07-09T17:17:50.723Z,44.60
2017-07-09T17:20:19.016Z,44.30
2017-07-09T17:22:47.326Z,45.20
2017-07-09T17:25:15.589Z,47.70
2017-07-09T17:27:43.859Z,47.30
2017-07-09T17:30:12.157Z,44.90
2017-07-09T17:32:40.429Z,47.60
2017-07-09T17:35:07.969Z,47.60
2017-07-09T17:37:36.244Z,45.80
2017-07-09T17:40:04.586Z,46.10
2017-07-09T17:42:32.856Z,46.20
2017-07-09T17:45:01.125Z,46.80
2017-07-09T17:47:29.424Z,48.20
2017-07-09T17:49:57.722Z,48.70
2017-07-09T17:52:25.988Z,47.10
2017-07-09T17:54:54.278Z,46.70
2017-07-09T17:57:22.561Z,46.90
2017-07-09T17:59:50.859Z,47.70
2017-07-09T18:02:19.154Z,47.90
2017-07-09T18:04:47.417Z,46.70
2017-07-09T18:07:15.725Z,47.10
2017-07-09T18:09:44.028Z,47.40
2017-07-09T18:12:12.298Z,48.20
2017-07-09T18:14:40.600Z,48.70
2017-07-09T18:17:08.858Z,49.40
2017-07-09T18:19:37.175Z,49.70
2017-07-09T18:22:05.444Z,49.90
2017-07-09T18:24:33.706Z,50.60
2017-07-09T18:27:02.006Z,51.20
2017-07-09T18:29:30.275Z,51.40
2017-07-09T18:31:58.576Z,51.80
2017-07-09T18:34:26.833Z,52.30
2017-07-09T18:36:55.102Z,52.80
2017-07-09T18:39:23.400Z,53.00
2017-07-09T18:41:51.661Z,52.70
2017-07-09T18:44:19.969Z,53.80
2017-07-09T18:46:48.253Z,53.00
2017-07-09T18:49:16.552Z,53.00
2017-07-09T18:51:44.822Z,54.40
2017-07-09T18:54:13.140Z,54.10
2017-07-09T18:56:41.436Z,54.50
2017-07-09T18:59:09.011Z,54.50
2017-07-09T19:01:37.311Z,55.10
2017-07-09T19:04:05.582Z,55.70
2017-07-09T19:06:33.876Z,55.80
2017-07-09T19:09:02.186Z,55.70
2017-07-09T19:11:30.477Z,55.90
2017-07-09T19:13:58.782Z,56.50
2017-07-09T19:16:27.059Z,57.60
2017-07-09T19:18:56.359Z,57.70
2017-07-09T19:21:24.635Z,58.10
2017-07-09T19:23:52.927Z,58.90
2017-07-09T19:26:21.188Z,59.20
2017-07-09T19:28:49.498Z,59.40
2017-07-09T19:31:18.320Z,59.70
2017-07-09T19:33:46.600Z,60.10
2017-07-09T19:36:14.902Z,60.00
2017-07-09T19:38:43.179Z,60.60
2017-07-09T19:41:11.476Z,62.10
2017-07-09T19:43:39.740Z,61.80
2017-07-09T19:46:08.051Z,61.80
2017-07-09T19:48:36.316Z,62.00
2017-07-09T19:51:04.595Z,63.00
2017-07-09T19:53:32.906Z,62.70
2017-07-09T19:56:01.178Z,63.10
2017-07-09T19:58:29.488Z,63.80
2017-07-09T20:00:57.762Z,64.00
2017-07-09T20:03:26.046Z,65.30
2017-07-09T20:05:54.362Z,65.10
2017-07-09T20:08:21.856Z,65.00
2017-07-09T20:10:50.164Z,64.50
2017-07-09T20:13:18.421Z,65.00
2017-07-09T20:15:46.693Z,65.50
2017-07-09T20:18:14.994Z,65.60
2017-07-09T20:20:43.262Z,65.70
2017-07-09T20:23:11.555Z,66.00
2017-07-09T20:25:39.820Z,65.80
2017-07-09T20:28:08.119Z,66.30
2017-07-09T20:30:36.390Z,65.90
2017-07-09T20:33:04.675Z,65.50
2017-07-09T20:35:32.943Z,66.20
2017-07-09T20:38:01.248Z,66.00
2017-07-09T20:40:29.516Z,65.20
2017-07-09T20:42:57.783Z,65.50
2017-07-09T20:45:26.084Z,65.90
2017-07-09T20:47:54.349Z,66.40
2017-07-09T20:50:22.645Z,65.70
2017-07-09T20:52:50.923Z,65.50
2017-07-09T20:55:19.220Z,64.90
2017-07-09T20:57:47.496Z,65.10
2017-07-09T21:00:15.801Z,65.10
2017-07-09T21:02:44.075Z,65.00
2017-07-09T21:05:12.338Z,65.00
2017-07-09T21:07:40.724Z,65.40
2017-07-09T21:10:08.984Z,66.30
2017-07-09T21:12:37.282Z,65.40
2017-07-09T21:15:05.583Z,64.40
2017-07-09T21:17:33.894Z,64.80
2017-07-09T21:20:02.166Z,64.60
2017-07-09T21:22:30.442Z,64.60
2017-07-09T21:24:58.737Z,64.50
2017-07-09T21:27:27.020Z,65.50
2017-07-09T21:29:55.309Z,65.00
2017-07-09T21:32:23.577Z,65.70
2017-07-09T21:34:51.868Z,65.00
2017-07-09T21:37:20.133Z,65.60
2017-07-09T21:39:48.445Z,65.90
2017-07-09T21:42:16.711Z,66.00
2017-07-09T21:44:44.967Z,65.60
2017-07-09T21:47:13.267Z,66.30
2017-07-09T21:49:41.587Z,64.90
2017-07-09T21:52:09.810Z,65.30
2017-07-09T21:54:38.092Z,66.70
2017-07-09T21:57:06.346Z,65.20
2017-07-09T21:59:34.641Z,65.50
2017-07-09T22:02:02.917Z,65.10
2017-07-09T22:04:31.212Z,64.80
2017-07-09T22:06:59.493Z,65.20
2017-07-09T22:09:27.773Z,65.20
2017-07-09T22:11:56.068Z,64.80
2017-07-09T22:14:24.346Z,65.70
2017-07-09T22:16:52.646Z,66.70
2017-07-09T22:19:20.934Z,66.40
2017-07-09T22:21:49.205Z,66.00
2017-07-09T22:24:17.502Z,65.90
2017-07-09T22:26:46.943Z,66.60
2017-07-09T22:29:15.233Z,65.20
2017-07-09T22:31:43.525Z,66.80
2017-07-09T22:34:11.799Z,65.10
2017-07-09T22:36:40.106Z,65.20
2017-07-09T22:39:08.369Z,65.20
2017-07-09T22:41:36.669Z,66.00
2017-07-09T22:44:04.938Z,65.00
2017-07-09T22:46:33.207Z,66.00
2017-07-09T22:49:01.507Z,66.30
2017-07-09T22:51:30.763Z,65.70
2017-07-09T22:53:59.389Z,66.10
2017-07-09T22:56:27.649Z,66.40
2017-07-09T22:58:55.911Z,66.30
2017-07-09T23:01:24.201Z,67.00
2017-07-09T23:03:52.504Z,68.30
2017-07-09T23:06:20.772Z,67.10
2017-07-09T23:08:49.048Z,67.20
2017-07-09T23:11:17.342Z,66.10
2017-07-09T23:13:45.601Z,66.40
2017-07-09T23:16:13.888Z,65.80
2017-07-09T23:18:42.148Z,67.50
2017-07-09T23:21:10.445Z,66.70
2017-07-09T23:23:38.704Z,66.20
2017-07-09T23:26:06.997Z,67.80
2017-07-09T23:28:35.282Z,67.20
2017-07-09T23:31:03.568Z,66.70
2017-07-09T23:33:31.824Z,68.00
2017-07-09T23:36:00.120Z,68.10
2017-07-09T23:38:28.399Z,67.40
2017-07-09T23:40:56.736Z,68.10
2017-07-09T23:43:25.000Z,68.10
2017-07-09T23:45:53.264Z,68.70
2017-07-09T23:48:21.560Z,68.40
2017-07-09T23:50:49.830Z,67.30
2017-07-09T23:53:18.123Z,66.90
2017-07-09T23:55:46.388Z,66.00
2017-07-09T23:58:14.665Z,66.70
